Time;durP1;ratioP1;P1;durP2;ratioP2;P2;SDS_P1;SDS_P2;PMS_P1;PMS_P2;Temp;Humidity;BMP_temperature;BMP_pressure;BME280_temperature;BME280_humidity;BME280_pressure;Samples;Min_cycle;Max_cycle;Signal;HPM_P1;HPM_P2
2023/12/11 00:01:47;;;;;;;26.70;19.00;;;;;;;-3.09;100.00;97311.41;1224342;75;2918593;-69
2023/12/11 00:04:20;;;;;;;26.40;18.80;;;;;;;-3.14;100.00;97303.81;1223898;75;2915140;-67
2023/12/11 00:06:54;;;;;;;26.85;20.45;;;;;;;-3.12;100.00;97288.09;1223610;75;2917862;-69
2023/12/11 00:09:27;;;;;;;29.80;23.50;;;;;;;-3.17;100.00;97291.97;1224533;75;2917642;-69
2023/12/11 00:12:00;;;;;;;26.95;20.60;;;;;;;-3.04;100.00;97293.00;1224135;75;2923747;-68
2023/12/11 00:14:35;;;;;;;29.80;22.50;;;;;;;-3.23;100.00;97286.25;1223478;75;2924248;-67
2023/12/11 00:17:09;;;;;;;30.65;23.50;;;;;;;-3.26;100.00;97292.38;1224060;75;2919217;-69
2023/12/11 00:19:42;;;;;;;32.35;23.55;;;;;;;-3.04;100.00;97297.59;1223822;67;2920823;-69
2023/12/11 00:22:14;;;;;;;31.05;22.65;;;;;;;-3.00;100.00;97282.28;1224123;75;2919725;-69
2023/12/11 00:24:47;;;;;;;30.95;23.65;;;;;;;-3.08;100.00;97278.13;1224518;75;2921912;-66
2023/12/11 00:27:20;;;;;;;34.70;23.95;;;;;;;-3.11;100.00;97265.53;1224515;75;2876442;-70
2023/12/11 00:29:56;;;;;;;33.40;24.00;;;;;;;-3.01;100.00;97254.75;1224136;75;2927982;-69
2023/12/11 00:32:29;;;;;;;27.20;21.95;;;;;;;-2.91;100.00;97263.06;1224261;75;2918398;-69
2023/12/11 00:35:02;;;;;;;29.80;21.50;;;;;;;-2.94;100.00;97250.47;1224390;75;2919107;-66
2023/12/11 00:37:35;;;;;;;30.35;21.80;;;;;;;-2.79;100.00;97244.59;1224238;75;2919431;-70
2023/12/11 00:40:10;;;;;;;25.20;19.30;;;;;;;-2.66;100.00;97231.47;1223391;75;2924992;-67
2023/12/11 00:42:43;;;;;;;28.25;21.10;;;;;;;-2.86;100.00;97230.50;1223955;75;2920940;-71
2023/12/11 00:45:19;;;;;;;22.40;17.35;;;;;;;-2.57;100.00;97233.69;1225240;75;2918544;-70
2023/12/11 00:47:52;;;;;;;26.05;20.00;;;;;;;-2.82;100.00;97223.19;1223997;75;2919557;-68
2023/12/11 00:50:25;;;;;;;26.75;20.15;;;;;;;-2.71;100.00;97209.72;1223469;75;2919724;-68
2023/12/11 00:52:58;;;;;;;22.25;18.15;;;;;;;-2.60;100.00;97181.66;1223939;75;2919350;-69
2023/12/11 00:55:31;;;;;;;29.95;23.00;;;;;;;-2.75;100.00;97179.53;1224023;75;2922355;-68
2023/12/11 00:58:04;;;;;;;29.65;22.30;;;;;;;-2.70;100.00;97176.41;1224078;75;2919094;-69
2023/12/11 01:00:39;;;;;;;24.90;19.65;;;;;;;-2.49;100.00;97176.16;1224207;75;2946865;-72
2023/12/11 01:03:12;;;;;;;21.20;16.75;;;;;;;-2.40;100.00;97178.38;1223210;75;2922902;-69
2023/12/11 01:05:45;;;;;;;19.65;15.35;;;;;;;-2.32;100.00;97182.47;1224268;75;2928294;-70
2023/12/11 01:08:18;;;;;;;17.90;14.00;;;;;;;-2.31;100.00;97192.03;1224431;75;2920709;-68
2023/12/11 01:10:51;;;;;;;33.95;24.90;;;;;;;-2.71;100.00;97199.00;1223924;75;2917931;-71
2023/12/11 01:13:24;;;;;;;29.55;21.80;;;;;;;-2.39;100.00;97212.81;1223781;75;2922245;-67
2023/12/11 01:15:59;;;;;;;25.05;19.60;;;;;;;-2.31;100.00;97218.84;1223158;75;2922505;-68
2023/12/11 01:18:32;;;;;;;27.15;18.80;;;;;;;-2.25;100.00;97219.94;1224124;75;2924106;-66
2023/12/11 01:21:06;;;;;;;34.70;25.00;;;;;;;-2.55;100.00;97231.34;1224711;75;2923319;-68
2023/12/11 01:23:39;;;;;;;34.20;25.65;;;;;;;-2.41;100.00;97233.88;1224401;75;2918857;-68
2023/12/11 01:26:12;;;;;;;25.70;20.60;;;;;;;-2.29;100.00;97232.59;1220639;75;3062482;-69
2023/12/11 01:28:44;;;;;;;31.00;23.60;;;;;;;-2.43;100.00;97214.78;1223670;75;2915532;-69
2023/12/11 01:31:20;;;;;;;29.50;21.45;;;;;;;-2.41;100.00;97203.66;1224561;75;2914726;-67
2023/12/11 01:33:53;;;;;;;28.95;21.75;;;;;;;-2.50;100.00;97200.69;1223696;75;2921710;-68
2023/12/11 01:36:26;;;;;;;24.40;20.70;;;;;;;-2.34;100.00;97194.78;1224376;75;2919384;-69
2023/12/11 01:38:59;;;;;;;21.95;17.50;;;;;;;-2.27;100.00;97206.16;1224102;75;2916656;-67
2023/12/11 01:41:32;;;;;;;31.50;25.35;;;;;;;-2.56;100.00;97203.03;1223545;75;2918916;-69
2023/12/11 01:44:05;;;;;;;34.30;26.75;;;;;;;-2.54;100.00;97173.19;1224386;67;2917711;-64
2023/12/11 01:46:41;;;;;;;28.10;22.20;;;;;;;-2.12;100.00;97168.44;1224359;75;2931824;-69
2023/12/11 01:49:14;;;;;;;26.55;20.90;;;;;;;-2.23;100.00;97142.53;1224553;75;2922980;-68
2023/12/11 01:51:47;;;;;;;21.65;17.75;;;;;;;-2.17;100.00;97135.56;1224252;75;2917263;-70
2023/12/11 01:54:20;;;;;;;22.20;17.00;;;;;;;-2.08;100.00;97137.75;1223281;75;2928749;-69
2023/12/11 01:56:54;;;;;;;21.35;16.95;;;;;;;-2.14;100.00;97125.97;1223938;75;2920079;-68
2023/12/11 01:59:27;;;;;;;27.85;22.40;;;;;;;-2.13;100.00;97113.31;1224216;75;2917513;-67
2023/12/11 02:02:02;;;;;;;26.10;21.40;;;;;;;-2.06;100.00;97132.00;1223935;75;2923641;-70
2023/12/11 02:04:35;;;;;;;34.45;25.40;;;;;;;-2.24;100.00;97106.16;1224903;75;2921126;-71
2023/12/11 02:07:09;;;;;;;26.95;21.40;;;;;;;-1.97;100.00;97113.47;1224321;75;2920458;-71
2023/12/11 02:09:43;;;;;;;28.95;23.45;;;;;;;-2.05;100.00;97110.13;1224565;75;2918405;-67
2023/12/11 02:12:16;;;;;;;28.30;21.95;;;;;;;-1.99;100.00;97105.06;1224555;75;2919217;-69
2023/12/11 02:14:48;;;;;;;28.50;22.35;;;;;;;-1.97;100.00;97108.88;1224052;75;2921532;-68
2023/12/11 02:17:24;;;;;;;25.25;19.60;;;;;;;-1.85;100.00;97104.09;1224019;75;2917856;-67
2023/12/11 02:19:57;;;;;;;20.35;16.20;;;;;;;-1.65;100.00;97101.50;1224085;75;2916944;-67
2023/12/11 02:22:30;;;;;;;19.65;15.80;;;;;;;-1.65;100.00;97112.22;1223848;75;2918591;-70
2023/12/11 02:25:06;;;;;;;21.75;18.05;;;;;;;-1.76;100.00;97113.13;1223746;75;2928996;-68
2023/12/11 02:27:41;;;;;;;35.10;25.95;;;;;;;-2.00;100.00;97098.16;1224360;75;2919554;-69
2023/12/11 02:30:15;;;;;;;32.20;25.60;;;;;;;-1.97;100.00;97090.09;1224297;75;2917343;-68
2023/12/11 02:32:47;;;;;;;26.20;20.00;;;;;;;-1.76;100.00;97080.94;1224079;75;2920363;-68
2023/12/11 02:35:20;;;;;;;30.00;23.40;;;;;;;-1.84;100.00;97070.75;1224170;75;2920794;-70
2023/12/11 02:37:53;;;;;;;27.90;22.25;;;;;;;-1.74;100.00;97069.81;1224281;75;2922683;-69
2023/12/11 02:40:26;;;;;;;29.80;24.10;;;;;;;-1.87;100.00;97063.50;1224726;75;2917308;-68
2023/12/11 02:43:02;;;;;;;24.50;19.95;;;;;;;-1.55;100.00;97041.50;1223758;75;2921902;-66
2023/12/11 02:45:35;;;;;;;21.90;17.60;;;;;;;-1.50;100.00;97044.47;1223806;75;2918566;-69
2023/12/11 02:48:08;;;;;;;19.25;16.75;;;;;;;-1.54;100.00;97053.75;1223876;75;2922769;-69
2023/12/11 02:50:42;;;;;;;27.35;22.05;;;;;;;-1.78;100.00;97063.72;1223892;75;2919050;-68
2023/12/11 02:53:15;;;;;;;38.20;28.50;;;;;;;-1.85;100.00;97051.22;1224296;75;2918482;-70
2023/12/11 02:55:48;;;;;;;28.45;22.70;;;;;;;-1.47;100.00;97058.25;1223688;75;2915631;-69
2023/12/11 02:58:23;;;;;;;29.90;22.95;;;;;;;-1.73;100.00;97063.28;1223310;75;2928466;-66
2023/12/11 03:00:56;;;;;;;28.10;21.65;;;;;;;-1.53;100.00;97058.72;1224582;75;2917362;-68
2023/12/11 03:03:29;;;;;;;23.60;18.55;;;;;;;-1.31;100.00;97061.03;1223629;75;2924274;-67
2023/12/11 03:06:04;;;;;;;25.10;21.10;;;;;;;-1.45;100.00;97064.72;1223819;75;2927392;-67
2023/12/11 03:08:36;;;;;;;25.65;20.00;;;;;;;-1.41;100.00;97041.25;1223724;75;2918650;-67
2023/12/11 03:11:09;;;;;;;23.40;18.20;;;;;;;-1.20;100.00;97036.66;1221499;75;2943228;-68
2023/12/11 03:13:45;;;;;;;17.60;14.95;;;;;;;-1.14;100.00;97037.72;1224053;75;2919697;-69
2023/12/11 03:16:18;;;;;;;26.00;20.70;;;;;;;-1.49;100.00;97050.63;1223654;75;2920956;-69
2023/12/11 03:18:51;;;;;;;30.90;22.45;;;;;;;-1.42;100.00;97041.66;1223387;75;2935231;-69
2023/12/11 03:21:24;;;;;;;27.85;20.60;;;;;;;-1.22;100.00;97052.44;1224216;75;2917082;-67
2023/12/11 03:23:57;;;;;;;22.95;17.70;;;;;;;-1.11;100.00;97053.78;1222795;75;2922669;-72
2023/12/11 03:26:30;;;;;;;21.15;15.75;;;;;;;-0.95;100.00;97050.38;1223393;75;2926518;-69
2023/12/11 03:29:06;;;;;;;15.90;13.10;;;;;;;-0.90;100.00;97057.97;1222722;75;2921016;-70
2023/12/11 03:31:39;;;;;;;13.70;10.45;;;;;;;-0.85;100.00;97051.34;1223915;75;2920633;-69
2023/12/11 03:34:12;;;;;;;12.80;10.10;;;;;;;-0.92;100.00;97041.50;1223507;75;2916299;-67
2023/12/11 03:36:45;;;;;;;17.05;13.70;;;;;;;-1.15;100.00;97047.69;1223880;75;2922048;-71
2023/12/11 03:39:18;;;;;;;21.75;15.50;;;;;;;-1.10;100.00;97043.78;1224034;75;2916053;-70
2023/12/11 03:41:51;;;;;;;24.30;17.15;;;;;;;-1.07;100.00;97032.22;1223620;75;2922037;-67
2023/12/11 03:44:27;;;;;;;21.35;15.30;;;;;;;-0.87;100.00;97030.28;1223518;75;2926323;-69
2023/12/11 03:47:00;;;;;;;17.65;13.05;;;;;;;-0.74;100.00;97027.72;1222850;75;2927657;-69
2023/12/11 03:49:33;;;;;;;15.90;12.40;;;;;;;-0.71;100.00;97021.50;1222397;75;2926632;-69
2023/12/11 03:52:07;;;;;;;15.30;10.40;;;;;;;-0.67;100.00;97003.38;1223904;75;2909420;-71
2023/12/11 03:54:41;;;;;;;14.25;9.60;;;;;;;-0.71;100.00;97015.38;1223856;75;2924007;-67
2023/12/11 03:57:14;;;;;;;13.00;8.85;;;;;;;-0.74;100.00;97008.91;1223109;75;2932713;-68
2023/12/11 03:59:49;;;;;;;13.05;8.75;;;;;;;-0.71;100.00;97001.94;1223583;75;2932431;-67
2023/12/11 04:02:22;;;;;;;9.00;6.90;;;;;;;-0.61;100.00;97003.63;1223990;75;2919491;-71
2023/12/11 04:04:55;;;;;;;10.60;6.80;;;;;;;-0.66;100.00;96991.44;1223873;75;2918448;-68
2023/12/11 04:07:28;;;;;;;13.80;9.35;;;;;;;-0.91;100.00;96983.16;1224260;75;2925058;-70
2023/12/11 04:10:01;;;;;;;18.80;12.05;;;;;;;-0.98;100.00;96986.75;1223585;75;2922583;-65
2023/12/11 04:12:35;;;;;;;16.65;12.25;;;;;;;-0.86;100.00;97002.22;1223513;75;2996312;-69
2023/12/11 04:15:13;;;;;;;17.80;12.05;;;;;;;-0.93;100.00;97002.38;1223992;75;2927839;-69
2023/12/11 04:17:46;;;;;;;19.20;13.25;;;;;;;-0.95;100.00;97003.97;1224004;75;2921536;-68
2023/12/11 04:20:19;;;;;;;19.50;13.45;;;;;;;-1.13;100.00;97012.34;1223012;75;2920034;-70
2023/12/11 04:22:52;;;;;;;18.60;13.20;;;;;;;-1.01;100.00;97019.03;1223807;75;2925434;-70
2023/12/11 04:25:25;;;;;;;20.90;15.75;;;;;;;-1.22;100.00;97007.56;1223740;75;2919563;-71
2023/12/11 04:27:59;;;;;;;20.25;15.20;;;;;;;-1.08;100.00;96996.53;1223600;75;2929850;-70
2023/12/11 04:30:34;;;;;;;19.85;15.00;;;;;;;-1.04;100.00;97006.44;1222973;75;2924137;-68
2023/12/11 04:33:07;;;;;;;15.40;12.00;;;;;;;-1.14;100.00;97029.66;1223644;75;2927100;-67
2023/12/11 04:35:40;;;;;;;21.45;15.55;;;;;;;-1.24;100.00;97033.31;1223235;75;2927012;-69
2023/12/11 04:38:13;;;;;;;18.50;13.45;;;;;;;-1.17;100.00;97047.34;1222714;75;2925147;-67
2023/12/11 04:40:46;;;;;;;17.00;12.10;;;;;;;-1.26;100.00;97063.25;1224151;75;2921552;-68
2023/12/11 04:43:19;;;;;;;17.95;13.15;;;;;;;-1.37;100.00;97051.94;1223751;75;2944798;-70
2023/12/11 04:45:54;;;;;;;15.90;12.30;;;;;;;-1.46;100.00;97068.59;1223377;75;2927643;-69
2023/12/11 04:48:27;;;;;;;17.40;12.45;;;;;;;-1.61;100.00;97068.06;1224639;75;2918468;-70
2023/12/11 04:51:00;;;;;;;22.10;17.00;;;;;;;-1.98;100.00;97069.78;1223539;75;2924141;-69
2023/12/11 04:53:33;;;;;;;18.95;14.40;;;;;;;-1.66;100.00;97070.44;1222769;75;2930466;-67
2023/12/11 04:56:10;;;;;;;18.50;13.35;;;;;;;-1.66;100.00;97081.97;1223956;75;2924312;-71
2023/12/11 04:58:43;;;;;;;20.90;13.85;;;;;;;-1.75;100.00;97069.06;1222104;75;2952422;-68
2023/12/11 05:01:19;;;;;;;17.45;13.35;;;;;;;-1.77;100.00;97060.66;1223255;75;2927931;-70
2023/12/11 05:03:52;;;;;;;15.15;12.15;;;;;;;-1.65;100.00;97082.72;1222737;75;2933124;-66
2023/12/11 05:06:24;;;;;;;17.45;12.50;;;;;;;-1.92;100.00;97072.78;1223563;75;2924259;-69
2023/12/11 05:08:57;;;;;;;17.00;11.80;;;;;;;-1.92;100.00;97080.81;1223718;75;2924790;-67
2023/12/11 05:11:30;;;;;;;15.80;11.40;;;;;;;-1.86;100.00;97070.38;1222584;75;2944254;-68
2023/12/11 05:14:03;;;;;;;24.30;17.65;;;;;;;-2.28;100.00;97099.34;1222198;75;2917286;-68
2023/12/11 05:16:39;;;;;;;22.15;15.85;;;;;;;-1.95;100.00;97116.50;1223661;75;2931858;-65
2023/12/11 05:19:12;;;;;;;24.45;17.10;;;;;;;-1.95;100.00;97119.94;1222960;75;2926767;-66
2023/12/11 05:21:47;;;;;;;22.55;15.70;;;;;;;-1.97;100.00;97129.56;1222976;75;2926531;-71
2023/12/11 05:24:20;;;;;;;21.45;15.50;;;;;;;-1.82;100.00;97112.09;1222619;75;2935117;-70
2023/12/11 05:26:50;;;;;;;18.60;14.80;;;;;;;-1.64;100.00;97119.09;1222194;75;2929534;-64
2023/12/11 05:29:24;;;;;;;21.60;15.70;;;;;;;-1.77;100.00;97121.59;1222623;75;2932401;-68
2023/12/11 05:31:59;;;;;;;23.75;17.80;;;;;;;-1.82;100.00;97114.78;1223059;75;2905379;-68
2023/12/11 05:34:32;;;;;;;20.30;14.70;;;;;;;-1.53;100.00;97117.03;1223468;75;2925027;-67
2023/12/11 05:37:05;;;;;;;17.40;12.75;;;;;;;-1.48;100.00;97134.59;1221777;75;3087159;-67
2023/12/11 05:39:38;;;;;;;16.70;12.85;;;;;;;-1.64;100.00;97140.56;1223173;83;2929144;-66
2023/12/11 05:42:11;;;;;;;16.85;12.50;;;;;;;-1.58;100.00;97134.34;1223768;75;2928851;-68
2023/12/11 05:44:44;;;;;;;19.35;12.45;;;;;;;-1.72;100.00;97148.72;1223819;75;2924720;-69
2023/12/11 05:47:19;;;;;;;16.65;11.90;;;;;;;-1.77;100.00;97143.06;1223989;75;2936374;-67
2023/12/11 05:49:52;;;;;;;13.15;10.25;;;;;;;-1.53;100.00;97155.34;1223528;75;2933081;-67
2023/12/11 05:52:25;;;;;;;12.20;8.90;;;;;;;-1.38;100.00;97147.81;1223899;75;2923611;-69
2023/12/11 05:54:58;;;;;;;11.75;8.70;;;;;;;-1.44;100.00;97149.47;1223167;75;2921961;-67
2023/12/11 05:57:31;;;;;;;14.15;9.80;;;;;;;-1.45;100.00;97149.88;1223077;75;2920822;-67
2023/12/11 06:00:04;;;;;;;12.70;9.00;;;;;;;-1.29;100.00;97153.44;1193228;75;5264982;-67
2023/12/11 06:02:39;;;;;;;13.65;10.10;;;;;;;-1.51;100.00;97139.59;1223418;75;2922433;-68
2023/12/11 06:05:12;;;;;;;17.85;13.05;;;;;;;-1.47;100.00;97122.66;1223495;75;2925027;-68
2023/12/11 06:07:47;;;;;;;12.90;9.85;;;;;;;-1.26;100.00;97132.31;1223288;75;2921395;-72
2023/12/11 06:10:20;;;;;;;10.80;8.50;;;;;;;-1.26;100.00;97148.41;1223456;75;2924764;-65
2023/12/11 06:12:53;;;;;;;10.40;8.30;;;;;;;-1.53;100.00;97155.34;1223133;75;2927594;-67
2023/12/11 06:15:26;;;;;;;13.95;9.75;;;;;;;-1.53;100.00;97184.88;1222846;75;2926525;-68
2023/12/11 06:18:01;;;;;;;18.10;13.65;;;;;;;-1.49;100.00;97200.94;1222572;75;2929340;-67
2023/12/11 06:20:34;;;;;;;20.65;14.40;;;;;;;-1.40;100.00;97208.47;1223772;75;2930455;-70
2023/12/11 06:23:07;;;;;;;17.05;12.60;;;;;;;-1.35;100.00;97206.09;1223582;75;2924312;-68
2023/12/11 06:25:40;;;;;;;14.10;11.05;;;;;;;-1.32;100.00;97218.69;1222293;75;2931562;-70
2023/12/11 06:28:13;;;;;;;14.05;10.30;;;;;;;-1.29;100.00;97207.13;1222571;67;2923217;-68
2023/12/11 06:30:47;;;;;;;12.85;9.50;;;;;;;-1.33;100.00;97206.44;1223317;75;2922924;-67
2023/12/11 06:33:25;;;;;;;12.80;10.00;;;;;;;-1.37;100.00;97215.69;1223357;75;2930350;-66
2023/12/11 06:35:58;;;;;;;20.55;15.15;;;;;;;-1.58;100.00;97217.53;1223374;75;2927891;-67
2023/12/11 06:38:30;;;;;;;22.45;14.30;;;;;;;-1.48;100.00;97223.94;1222139;75;2942909;-69
2023/12/11 06:41:03;;;;;;;25.65;18.30;;;;;;;-1.75;100.00;97213.19;1222207;75;2927478;-66
2023/12/11 06:43:38;;;;;;;21.45;16.00;;;;;;;-1.64;100.00;97215.72;1223468;75;2926117;-69
2023/12/11 06:46:11;;;;;;;19.10;15.10;;;;;;;-1.39;100.00;97200.00;1222302;75;2926828;-65
2023/12/11 06:48:47;;;;;;;17.40;13.10;;;;;;;-1.26;100.00;97180.66;1222425;75;2933699;-67
2023/12/11 06:51:20;;;;;;;18.55;13.15;;;;;;;-1.41;100.00;97175.50;1221319;75;2936108;-68
2023/12/11 06:53:58;;;;;;;29.95;21.85;;;;;;;-1.78;100.00;97176.41;1222286;75;2929240;-68
2023/12/11 06:56:33;;;;;;;29.90;20.60;;;;;;;-1.65;100.00;97188.13;1222864;75;2923358;-66
2023/12/11 06:59:06;;;;;;;30.50;20.25;;;;;;;-1.74;100.00;97188.63;1223366;75;2924569;-69
2023/12/11 07:01:39;;;;;;;30.05;21.90;;;;;;;-1.60;100.00;97187.66;1222138;75;2937421;-70
2023/12/11 07:04:15;;;;;;;26.80;20.00;;;;;;;-1.45;100.00;97161.38;1219434;75;2931155;-69
2023/12/11 07:06:48;;;;;;;22.40;16.15;;;;;;;-1.31;100.00;97136.22;1220754;75;2935659;-68
2023/12/11 07:09:21;;;;;;;17.60;13.80;;;;;;;-1.32;100.00;97135.47;1220806;75;2921606;-66
2023/12/11 07:11:55;;;;;;;17.90;13.65;;;;;;;-1.38;100.00;97142.47;1221862;75;2931519;-67
2023/12/11 07:14:28;;;;;;;18.90;13.60;;;;;;;-1.57;100.00;97151.94;1222601;75;2918322;-66
2023/12/11 07:17:00;;;;;;;25.25;17.05;;;;;;;-1.80;100.00;97123.19;1223287;75;2924000;-69
2023/12/11 07:19:36;;;;;;;26.40;18.90;;;;;;;-1.81;100.00;97126.25;1221982;75;2931353;-69
2023/12/11 07:22:09;;;;;;;35.60;23.70;;;;;;;-1.99;100.00;97137.25;1222048;75;2930436;-71
2023/12/11 07:24:42;;;;;;;34.20;25.55;;;;;;;-1.90;100.00;97147.47;1221188;75;2926040;-71
2023/12/11 07:27:15;;;;;;;38.05;27.40;;;;;;;-1.90;100.00;97134.84;1222883;75;2921807;-70
2023/12/11 07:29:48;;;;;;;37.70;28.00;;;;;;;-1.68;100.00;97129.13;1220743;75;2933744;-70
2023/12/11 07:32:21;;;;;;;38.00;29.05;;;;;;;-1.69;100.00;97111.53;1222615;67;2924852;-67
2023/12/11 07:34:56;;;;;;;40.50;30.15;;;;;;;-1.33;100.00;97125.13;1220952;75;2933433;-67
2023/12/11 07:37:29;;;;;;;32.35;25.25;;;;;;;-0.50;100.00;97143.97;1222573;75;2926007;-69
2023/12/11 07:40:02;;;;;;;29.70;22.90;;;;;;;-0.01;100.00;97179.09;1221945;75;2927982;-68
2023/12/11 07:42:35;;;;;;;42.35;31.75;;;;;;;-0.68;100.00;97203.44;1223238;75;2924640;-68
2023/12/11 07:45:10;;;;;;;45.50;31.45;;;;;;;-0.67;100.00;97193.47;1221101;75;2918062;-69
2023/12/11 07:47:43;;;;;;;40.90;28.85;;;;;;;-0.42;100.00;97179.53;1222723;75;2924068;-70
2023/12/11 07:50:18;;;;;;;39.10;29.20;;;;;;;-0.73;100.00;97166.28;1221700;75;2924887;-68
2023/12/11 07:52:52;;;;;;;36.10;28.30;;;;;;;-0.67;100.00;97139.72;1222415;75;2934235;-70
2023/12/11 07:55:25;;;;;;;35.45;26.15;;;;;;;-0.39;100.00;97133.00;1221031;75;2934744;-69
2023/12/11 07:57:58;;;;;;;29.75;23.15;;;;;;;-0.03;100.00;97116.88;1222761;75;2925739;-68
2023/12/11 08:00:31;;;;;;;23.75;19.00;;;;;;;0.34;100.00;97133.75;1220760;75;2927244;-68
2023/12/11 08:03:05;;;;;;;28.20;20.70;;;;;;;0.13;100.00;97174.59;1223284;75;2918200;-69
2023/12/11 08:05:42;;;;;;;40.75;28.20;;;;;;;0.13;100.00;97174.59;1220663;75;2923353;-69
2023/12/11 08:08:15;;;;;;;33.75;23.75;;;;;;;0.03;100.00;97162.13;1222444;75;2921244;-68
2023/12/11 08:10:49;;;;;;;31.65;22.00;;;;;;;0.07;100.00;97160.84;1221697;75;2923561;-69
2023/12/11 08:13:21;;;;;;;27.75;21.90;;;;;;;0.13;100.00;97159.19;1222967;75;2930996;-67
2023/12/11 08:15:54;;;;;;;27.25;19.30;;;;;;;0.48;100.00;97166.88;1221160;75;2923782;-70
2023/12/11 08:18:27;;;;;;;24.65;18.70;;;;;;;0.38;100.00;97164.03;1223177;75;2920957;-68
2023/12/11 08:21:03;;;;;;;24.35;18.55;;;;;;;0.52;100.00;97148.72;1221458;75;2949286;-68
2023/12/11 08:23:36;;;;;;;28.85;20.50;;;;;;;0.65;100.00;97144.19;1223070;75;2927371;-68
2023/12/11 08:26:09;;;;;;;27.10;18.50;;;;;;;1.17;100.00;97145.94;1222391;75;2919935;-66
2023/12/11 08:28:43;;;;;;;19.85;14.65;;;;;;;1.29;100.00;97157.97;1216745;75;2998886;-68
2023/12/11 08:31:15;;;;;;;22.45;16.50;;;;;;;1.11;100.00;97168.44;1221515;75;2920648;-67
2023/12/11 08:33:48;;;;;;;20.25;15.45;;;;;;;1.80;100.00;97173.56;1222785;75;2919053;-68
2023/12/11 08:36:24;;;;;;;15.70;11.65;;;;;;;2.41;100.00;97172.56;1220683;75;2924439;-66
2023/12/11 08:38:57;;;;;;;13.15;10.65;;;;;;;2.30;100.00;97159.34;1223127;75;2922868;-66
2023/12/11 08:41:30;;;;;;;15.05;11.15;;;;;;;2.14;100.00;97140.56;1222392;75;2931769;-69
2023/12/11 08:44:03;;;;;;;22.15;15.60;;;;;;;1.99;100.00;97152.97;1220838;75;3038744;-67
2023/12/11 08:46:36;;;;;;;21.60;15.35;;;;;;;2.02;100.00;97169.06;1222745;75;2921218;-69
2023/12/11 08:49:09;;;;;;;20.15;14.15;;;;;;;2.33;100.00;97161.22;1223063;67;2924665;-67
2023/12/11 08:51:44;;;;;;;25.90;16.20;;;;;;;2.47;100.00;97149.19;1221055;75;2928823;-68
2023/12/11 08:54:17;;;;;;;23.95;16.20;;;;;;;2.64;100.00;97138.25;1222693;75;2924714;-65
2023/12/11 08:56:51;;;;;;;25.10;15.65;;;;;;;3.15;100.00;97130.00;1221324;75;2956978;-71
2023/12/11 08:59:24;;;;;;;18.50;12.60;;;;;;;3.83;100.00;97127.63;1223252;75;2925430;-69
2023/12/11 09:01:57;;;;;;;16.25;11.60;;;;;;;4.25;100.00;97121.78;1222748;75;2924997;-68
2023/12/11 09:04:30;;;;;;;18.35;13.50;;;;;;;4.76;100.00;97105.06;1222571;75;2923482;-67
2023/12/11 09:07:07;;;;;;;16.75;12.70;;;;;;;5.48;93.07;97121.03;1220740;75;2921989;-68
2023/12/11 09:09:40;;;;;;;15.80;12.15;;;;;;;5.79;86.13;97120.84;1222866;75;2924930;-66
2023/12/11 09:12:13;;;;;;;19.75;13.15;;;;;;;6.66;82.38;97112.97;1220997;75;2923852;-68
2023/12/11 09:14:46;;;;;;;16.50;12.70;;;;;;;7.63;77.47;97117.06;1222725;75;2936752;-69
2023/12/11 09:17:19;;;;;;;15.30;11.40;;;;;;;8.22;75.71;97118.25;1220753;75;2928243;-69
2023/12/11 09:19:52;;;;;;;13.15;9.25;;;;;;;8.14;74.12;97111.69;1222580;75;2941095;-65
2023/12/11 09:22:29;;;;;;;12.00;9.30;;;;;;;8.22;72.89;97104.63;1221755;75;2928802;-71
2023/12/11 09:25:02;;;;;;;12.60;8.50;;;;;;;8.32;73.44;97111.47;1223472;67;2920592;-68
2023/12/11 09:27:35;;;;;;;12.15;8.40;;;;;;;8.44;71.65;97107.72;1222905;75;2931638;-69
2023/12/11 09:30:12;;;;;;;18.00;11.55;;;;;;;6.88;74.49;97095.59;1224307;75;2922628;-69
2023/12/11 09:32:45;;;;;;;18.45;12.40;;;;;;;6.78;75.01;97120.16;1222620;75;2920679;-69
2023/12/11 09:35:18;;;;;;;15.75;10.95;;;;;;;6.76;75.03;97119.13;1222644;75;2921055;-68
2023/12/11 09:37:53;;;;;;;17.45;12.35;;;;;;;5.79;77.61;97120.09;1221740;75;2927894;-70
2023/12/11 09:40:26;;;;;;;14.45;10.25;;;;;;;6.10;77.36;97090.75;1223793;75;2921179;-69
2023/12/11 09:43:02;;;;;;;17.90;10.65;;;;;;;6.25;77.24;97084.63;1221630;75;2924494;-68
2023/12/11 09:45:36;;;;;;;15.30;10.20;;;;;;;6.98;74.56;97072.56;1222646;75;2926560;-69
2023/12/11 09:48:09;;;;;;;12.90;8.40;;;;;;;8.40;71.36;97049.13;1221456;75;2914516;-68
2023/12/11 09:50:42;;;;;;;14.75;9.25;;;;;;;9.42;66.10;97031.91;1223040;75;2921774;-68
2023/12/11 09:53:19;;;;;;;12.50;8.40;;;;;;;10.46;63.69;97026.19;1223095;75;2916847;-71
2023/12/11 09:55:52;;;;;;;10.15;7.60;;;;;;;11.25;61.24;97031.94;1222819;75;2923964;-70
2023/12/11 09:58:26;;;;;;;13.15;9.15;;;;;;;10.80;60.55;97031.81;1222921;75;2915091;-65
2023/12/11 10:01:00;;;;;;;14.95;9.80;;;;;;;12.04;58.30;97019.03;1223153;75;2919950;-68
2023/12/11 10:03:35;;;;;;;12.40;8.15;;;;;;;13.73;54.27;97012.03;1221693;75;2932569;-66
2023/12/11 10:06:09;;;;;;;14.90;9.95;;;;;;;15.07;51.07;97018.13;1221709;75;2922934;-66
2023/12/11 10:08:52;;;;;;;10.55;7.90;;;;;;;17.54;46.51;97016.97;1221579;75;2919851;-70
2023/12/11 10:11:26;;;;;;;15.90;9.85;;;;;;;16.85;46.55;97000.34;1223626;75;2924308;-70
2023/12/11 10:14:13;;;;;;;12.65;8.95;;;;;;;16.70;44.79;96980.81;1219752;75;2936618;-68
2023/12/11 10:16:47;;;;;;;17.25;11.55;;;;;;;14.69;48.33;96948.47;1223192;75;2923833;-70
2023/12/11 10:19:20;;;;;;;17.85;10.45;;;;;;;16.55;47.13;96928.84;1221182;75;2934302;-67
2023/12/11 10:21:53;;;;;;;16.00;9.30;;;;;;;16.42;45.95;96924.06;1219109;75;3052947;-67
2023/12/11 10:24:29;;;;;;;14.15;9.65;;;;;;;15.76;45.69;96911.03;1221907;75;2921951;-68
2023/12/11 10:27:03;;;;;;;13.30;9.20;;;;;;;13.48;49.95;96901.97;1223625;75;2921206;-70
2023/12/11 10:29:36;;;;;;;15.25;9.15;;;;;;;12.09;53.52;96900.31;1222513;75;2942410;-70
2023/12/11 10:32:10;;;;;;;15.10;8.90;;;;;;;13.76;51.05;96906.47;1223218;75;2919129;-73
2023/12/11 10:34:50;;;;;;;11.85;9.10;;;;;;;13.22;51.25;96914.16;1221740;75;2924030;-68
2023/12/11 10:37:31;;;;;;;13.75;9.00;;;;;;;13.12;51.58;96906.75;1222408;75;2921692;-66
2023/12/11 10:40:08;;;;;;;11.90;8.45;;;;;;;12.22;53.36;96921.72;1222915;75;2927132;-70
2023/12/11 10:42:44;;;;;;;10.40;8.30;;;;;;;10.54;57.33;96931.47;1206851;75;4125562;-68
2023/12/11 10:45:17;;;;;;;12.30;8.45;;;;;;;10.64;58.04;96940.19;1221697;75;2960228;-69
2023/12/11 10:47:50;;;;;;;13.25;8.05;;;;;;;9.89;59.61;96936.88;1222173;75;2937665;-69
2023/12/11 10:50:23;;;;;;;14.55;10.10;;;;;;;8.74;63.32;96939.19;1222875;75;2923566;-68
2023/12/11 10:52:56;;;;;;;14.40;9.45;;;;;;;8.76;64.55;96944.16;1221923;75;2921411;-70
2023/12/11 10:55:32;;;;;;;18.00;10.75;;;;;;;7.85;66.88;96950.47;1223524;75;2918353;-69
2023/12/11 10:58:09;;;;;;;13.90;10.65;;;;;;;7.35;69.74;96952.44;1222968;75;2927238;-67
2023/12/11 11:00:42;;;;;;;16.05;10.55;;;;;;;6.96;71.31;96961.47;1222591;75;2928892;-66
2023/12/11 11:03:16;;;;;;;18.90;12.65;;;;;;;6.43;74.70;96948.63;1221745;67;2926171;-70
2023/12/11 11:05:49;;;;;;;17.95;12.90;;;;;;;6.27;76.19;96914.44;1223644;75;2928606;-69
2023/12/11 11:08:32;;;;;;;17.80;12.60;;;;;;;6.15;78.12;96912.72;1223206;75;2941203;-68
2023/12/11 11:11:17;;;;;;;18.55;12.40;;;;;;;5.53;83.71;96914.88;1224162;75;2934108;-66
2023/12/11 11:14:28;;;;;;;18.55;12.20;;;;;;;5.88;82.84;96946.22;1223177;75;2926152;-70
2023/12/11 11:17:01;;;;;;;17.60;11.20;;;;;;;5.91;81.49;96945.31;1223520;75;2925147;-69
2023/12/11 11:19:35;;;;;;;18.90;12.50;;;;;;;6.28;80.42;96951.28;1223924;75;2917630;-68
2023/12/11 11:22:23;;;;;;;14.40;10.60;;;;;;;7.04;77.44;96956.41;1224011;75;2922712;-64
2023/12/11 11:24:57;;;;;;;16.50;11.90;;;;;;;6.35;79.90;96940.06;1224512;75;2933406;-68
2023/12/11 11:27:47;;;;;;;16.20;11.55;;;;;;;6.38;79.87;96925.53;1222046;75;2923787;-70
2023/12/11 11:30:52;;;;;;;18.35;12.90;;;;;;;6.74;78.17;96918.28;1221519;75;2926802;-70